METAR Data
IDs: Format: Raw Decoded Include TAF

Data at: 2144 UTC 18 Sep 2018

KL18 182135Z AUTO 23007KT 10SM CLR 30/10 A2984 RMK AO2
KL18 182115Z AUTO 21006KT 10SM CLR 30/10 A2984 RMK AO2
KL18 182055Z AUTO 22007KT 180V240 10SM CLR 30/10 A2985 RMK AO2
KL18 182035Z AUTO 21008KT 10SM CLR 30/10 A2986 RMK AO2
KL18 182015Z AUTO 22008KT 10SM CLR 29/09 A2986 RMK AO2
KL18 181955Z AUTO 22006KT 10SM CLR 29/09 A2987 RMK AO2
KL18 181935Z AUTO 22007KT 10SM CLR 28/12 A2987 RMK AO2
KL18 181915Z AUTO 21005KT 10SM CLR 28/10 A2988 RMK AO2
KL18 181835Z AUTO 22004KT 10SM CLR 28/08 A2989 RMK AO2
KL18 181815Z AUTO 20004KT 10SM CLR 27/08 A2990 RMK AO2
KL18 181755Z AUTO 18003KT 10SM CLR 26/08 A2990 RMK AO2
KL18 181735Z AUTO 20005KT 10SM CLR 25/08 A2991 RMK AO2
KL18 181715Z AUTO 15003KT 10SM CLR 24/08 A2991 RMK AO2
KL18 181655Z AUTO 00000KT 10SM CLR 23/08 A2991 RMK AO2
KL18 181635Z AUTO 00000KT 10SM CLR 22/09 A2991 RMK AO2
KL18 181615Z AUTO 00000KT 10SM CLR 20/08 A2992 RMK AO2
KL18 181555Z AUTO 00000KT 10SM CLR 19/07 A2991 RMK AO2
KL18 181535Z AUTO 00000KT 10SM CLR 18/09 A2991 RMK AO2
KL18 181515Z AUTO 00000KT 10SM CLR 16/08 A2991 RMK AO2
KL18 181455Z AUTO 00000KT 10SM CLR 17/08 A2991 RMK AO2
KL18 181435Z AUTO 36003KT 10SM CLR 15/06 A2990 RMK AO2
KL18 181415Z AUTO 10SM CLR 15/06 A2990 RMK AO2
KL18 181355Z AUTO 10SM CLR 15/07 A2990 RMK AO2
KL18 181335Z AUTO 10SM CLR 15/09 A2990 RMK AO2
KL18 181315Z AUTO 00000KT 10SM CLR 14/08 A2990 RMK AO2
KL18 181255Z AUTO 00000KT 10SM CLR 15/09 A2989 RMK AO2
KL18 181235Z AUTO 00000KT 10SM CLR 14/09 A2989 RMK AO2
KL18 181215Z AUTO 00000KT 10SM CLR 14/05 A2989 RMK AO2
KL18 181155Z AUTO 01003KT 10SM CLR 15/06 A2989 RMK AO2
KL18 181135Z AUTO 00000KT 10SM CLR 15/06 A2989 RMK AO2
KL18 181115Z AUTO 02003KT 10SM CLR 15/06 A2988 RMK AO2
KL18 181055Z AUTO 02004KT 10SM CLR 14/07 A2988 RMK AO2
KL18 181035Z AUTO 01004KT 10SM CLR 15/09 A2988 RMK AO2
KL18 181015Z AUTO 01003KT 10SM SCT002 15/11 A2989 RMK AO2
KL18 180955Z AUTO 00000KT 3SM BR BKN002 15/13 A2989 RMK AO2
KL18 180935Z AUTO 00000KT 10SM SCT002 15/11 A2990 RMK AO2
KL18 180915Z AUTO 00000KT 10SM CLR 15/11 A2990 RMK AO2
KL18 180855Z AUTO 00000KT 10SM CLR 15/11 A2990 RMK AO2
KL18 180835Z AUTO 00000KT 10SM CLR 15/12 A2990 RMK AO2
KL18 180815Z AUTO 00000KT 10SM CLR 16/13 A2990 RMK AO2
KL18 180755Z AUTO 00000KT 10SM CLR 16/14 A2990 RMK AO2
KL18 180735Z AUTO 00000KT 10SM CLR 16/13 A2991 RMK AO2
KL18 180715Z AUTO 00000KT 10SM CLR 16/15 A2991 RMK AO2
KL18 180655Z AUTO 00000KT 10SM CLR 17/16 A2991 RMK AO2
KL18 180635Z AUTO 00000KT 10SM CLR 17/16 A2991 RMK AO2
KL18 180615Z AUTO 00000KT 10SM CLR 17/15 A2991 RMK AO2
KL18 180555Z AUTO 00000KT 10SM CLR 17/15 A2991 RMK AO2
KL18 180535Z AUTO 00000KT 10SM CLR 17/15 A2991 RMK AO2
KL18 180515Z AUTO 00000KT 10SM CLR 17/15 A2990 RMK AO2
KL18 180455Z AUTO 00000KT 10SM CLR 17/15 A2990 RMK AO2
KL18 180435Z AUTO 00000KT 10SM CLR 17/15 A2990 RMK AO2
KL18 180415Z AUTO 00000KT 10SM CLR 18/15 A2989 RMK AO2
KL18 180355Z AUTO 00000KT 10SM CLR 18/15 A2988 RMK AO2
KL18 180335Z AUTO 00000KT 10SM CLR 18/15 A2988 RMK AO2
KL18 180315Z AUTO 00000KT 10SM CLR 19/14 A2987 RMK AO2
KL18 180255Z AUTO 00000KT 10SM CLR 19/13 A2986 RMK AO2
KL18 180235Z AUTO 00000KT 10SM CLR 20/13 A2986 RMK AO2
KL18 180215Z AUTO 00000KT 10SM CLR 21/12 A2986 RMK AO2
KL18 180155Z AUTO 10SM CLR 22/11 A2985 RMK AO2
KL18 180135Z AUTO 17004KT 10SM CLR 23/12 A2986 RMK AO2
KL18 180115Z AUTO 19005KT 10SM CLR 24/12 A2986 RMK AO2
KL18 180055Z AUTO 20007KT 10SM CLR 25/11 A2985 RMK AO2
KL18 180035Z AUTO 20007KT 10SM CLR 26/10 A2985 RMK AO2
KL18 180015Z AUTO 19006KT 10SM CLR 26/11 A2985 RMK AO2
KL18 172355Z AUTO 20007KT 10SM CLR 28/10 A2985 RMK AO2
KL18 172335Z AUTO 19007KT 10SM CLR 28/09 A2985 RMK AO2
KL18 172315Z AUTO 19005KT 10SM CLR 28/09 A2986 RMK AO2
KL18 172255Z AUTO 20008KT 10SM CLR 29/08 A2986 RMK AO2
KL18 172235Z AUTO 20008G14KT 10SM CLR 30/07 A2986 RMK AO2
KL18 172215Z AUTO 22009KT 10SM CLR 30/06 A2986 RMK AO2
KL18 172155Z AUTO 22010G14KT 10SM CLR 30/10 A2987 RMK AO2
KL18 172135Z AUTO 21010KT 10SM CLR 31/11 A2987 RMK AO2
KL18 172115Z AUTO 22008KT 10SM CLR 30/12 A2988 RMK AO2
KL18 172055Z AUTO 22007KT 10SM CLR 30/12 A2988 RMK AO2
KL18 172035Z AUTO 21008KT 170V230 10SM CLR 30/13 A2989 RMK AO2
KL18 172015Z AUTO 21006KT 10SM CLR 30/11 A2989 RMK AO2
KL18 171955Z AUTO 20007KT 170V240 10SM CLR 30/13 A2990 RMK AO2
KL18 171935Z AUTO 23008KT 10SM CLR 30/12 A2990 RMK AO2
KL18 171915Z AUTO 21007KT 170V240 10SM CLR 29/13 A2991 RMK AO2
KL18 171855Z AUTO 23005KT 10SM CLR 29/13 A2991 RMK AO2
KL18 171835Z AUTO 21004KT 10SM CLR 29/11 A2991 RMK AO2
KL18 171815Z AUTO 19004KT 10SM CLR 28/10 A2991 RMK AO2
KL18 171755Z AUTO 00000KT 10SM CLR 27/08 A2992 RMK AO2
KL18 171735Z AUTO 23003KT 10SM CLR 27/09 A2992 RMK AO2
KL18 171715Z AUTO 19003KT 10SM CLR 26/10 A2992 RMK AO2
KL18 171655Z AUTO 00000KT 10SM CLR 26/08 A2992 RMK AO2
KL18 171635Z AUTO 00000KT 10SM CLR 25/08 A2992 RMK AO2
KL18 171615Z AUTO 00000KT 10SM CLR 23/10 A2992 RMK AO2
KL18 171555Z AUTO 00000KT 10SM CLR 22/11 A2991 RMK AO2
KL18 171535Z AUTO 00000KT 10SM CLR 21/09 A2991 RMK AO2
KL18 171515Z AUTO 00000KT 10SM CLR 21/09 A2991 RMK AO2
KL18 171455Z AUTO 00000KT 10SM CLR 19/08 A2991 RMK AO2
KL18 171435Z AUTO 00000KT 10SM CLR 18/07 A2991 RMK AO2
KL18 171415Z AUTO 34003KT 10SM CLR 17/07 A2991 RMK AO2
KL18 171355Z AUTO 00000KT 10SM CLR 16/08 A2991 RMK AO2
KL18 171335Z AUTO 00000KT 10SM CLR 16/09 A2990 RMK AO2
KL18 171315Z AUTO 00000KT 10SM CLR 16/08 A2990 RMK AO2
KL18 171255Z AUTO 00000KT 10SM CLR 16/08 A2989 RMK AO2
KL18 171235Z AUTO 00000KT 10SM CLR 17/08 A2989 RMK AO2
KL18 171215Z AUTO 00000KT 10SM CLR 17/08 A2989 RMK AO2
KL18 171155Z AUTO 00000KT 10SM CLR 18/10 A2989 RMK AO2
KL18 171135Z AUTO 32003KT 10SM CLR 17/09 A2989 RMK AO2
KL18 171115Z AUTO 30006KT 10SM CLR 16/10 A2989 RMK AO2
KL18 171055Z AUTO 30004KT 10SM CLR 16/11 A2989 RMK AO2
KL18 171035Z AUTO 03005KT 10SM CLR 16/11 A2989 RMK AO2
KL18 171015Z AUTO 00000KT 10SM CLR 16/12 A2990 RMK AO2
KL18 170955Z AUTO 31005KT 10SM CLR 17/13 A2990 RMK AO2